Time;durP1;ratioP1;P1;durP2;ratioP2;P2;SDS_P1;SDS_P2;PMS_P1;PMS_P2;Temp;Humidity;BMP_temperature;BMP_pressure;BME280_temperature;BME280_humidity;BME280_pressure;Samples;Min_cycle;Max_cycle;Signal;HPM_P1;HPM_P2
2023/01/16 00:02:12;;;;;;;;;;;179.60;2252.80;;;;;;5035911;28;19919;-75
2023/01/16 00:04:38;;;;;;;;;;;179.60;2252.80;;;;;;5036197;28;19912;-75
2023/01/16 00:07:03;;;;;;;;;;;179.60;2252.80;;;;;;5054336;28;19909;-75
2023/01/16 00:09:29;;;;;;;;;;;179.60;2252.80;;;;;;5054047;28;19908;-75
2023/01/16 00:11:54;;;;;;;;;;;179.50;2252.80;;;;;;5036231;28;19975;-75
2023/01/16 00:14:20;;;;;;;;;;;179.50;2252.80;;;;;;5036444;28;19962;-75
2023/01/16 00:16:45;;;;;;;;;;;179.50;2252.80;;;;;;5036114;28;19911;-75
2023/01/16 00:19:11;;;;;;;;;;;179.50;2252.80;;;;;;5036174;28;19919;-75
2023/01/16 00:21:37;;;;;;;;;;;179.40;2252.80;;;;;;5036086;28;20011;-75
2023/01/16 00:24:02;;;;;;;;;;;179.40;2252.80;;;;;;5036703;28;20351;-75
2023/01/16 00:26:28;;;;;;;;;;;179.40;2252.80;;;;;;5035991;28;19905;-75
2023/01/16 00:28:54;;;;;;;;;;;179.40;2252.80;;;;;;5053877;28;20457;-76
2023/01/16 00:31:23;;;;;;;;;;;179.40;2252.80;;;;;;5035983;28;19905;-76
2023/01/16 00:33:48;;;;;;;;;;;179.40;2252.80;;;;;;5035919;28;19909;-75
2023/01/16 00:36:14;;;;;;;;;;;179.40;2252.80;;;;;;5034469;28;19949;-75
2023/01/16 00:38:40;;;;;;;;;;;179.40;2252.80;;;;;;5053745;28;20287;-75
2023/01/16 00:41:05;;;;;;;;;;;179.40;2252.80;;;;;;5053616;28;19916;-75
2023/01/16 00:43:31;;;;;;;;;;;179.40;2252.80;;;;;;5035782;28;19905;-76
2023/01/16 00:45:57;;;;;;;;;;;179.40;2252.80;;;;;;5035042;28;19978;-75
2023/01/16 00:48:23;;;;;;;;;;;179.40;2252.80;;;;;;5035498;28;19909;-75
2023/01/16 00:50:48;;;;;;;;;;;179.30;2252.80;;;;;;5035465;28;19908;-75
2023/01/16 00:53:14;;;;;;;;;;;179.40;2252.80;;;;;;5035698;28;19911;-75
2023/01/16 00:55:41;;;;;;;;;;;179.40;2252.80;;;;;;5053774;28;20366;-75
2023/01/16 00:58:10;;;;;;;;;;;179.30;2252.80;;;;;;5034716;28;19917;-76
2023/01/16 01:00:36;;;;;;;;;;;179.30;2252.80;;;;;;5035838;28;19908;-76
2023/01/16 01:03:02;;;;;;;;;;;179.30;2252.80;;;;;;5053120;28;19909;-76
2023/01/16 01:05:28;;;;;;;;;;;179.40;2252.80;;;;;;5034927;28;19912;-75
2023/01/16 01:07:53;;;;;;;;;;;179.40;2252.80;;;;;;5035257;28;19966;-76
2023/01/16 01:10:19;;;;;;;;;;;179.60;2252.80;;;;;;5034598;28;19908;-75
2023/01/16 01:12:44;;;;;;;;;;;179.50;2252.80;;;;;;5053214;28;19915;-75
2023/01/16 01:15:10;;;;;;;;;;;179.40;2252.80;;;;;;5052941;28;19904;-76
2023/01/16 01:17:36;;;;;;;;;;;179.40;2252.80;;;;;;5033115;28;19913;-76
2023/01/16 01:20:02;;;;;;;;;;;179.40;2252.80;;;;;;5035854;28;19905;-75
2023/01/16 01:22:27;;;;;;;;;;;179.40;2252.80;;;;;;5027495;28;19917;-75
2023/01/16 01:24:53;;;;;;;;;;;179.40;2252.80;;;;;;5035684;28;20384;-75
2023/01/16 01:27:19;;;;;;;;;;;179.40;2252.80;;;;;;5035584;28;19912;-75
2023/01/16 01:29:44;;;;;;;;;;;179.40;2252.80;;;;;;5027576;28;19909;-75
2023/01/16 01:32:10;;;;;;;;;;;179.40;2252.80;;;;;;5050678;28;20309;-75
2023/01/16 01:34:36;;;;;;;;;;;179.40;2252.80;;;;;;5029263;28;19905;-75
2023/01/16 01:37:02;;;;;;;;;;;179.40;2252.80;;;;;;5053328;28;19905;-76
2023/01/16 01:39:28;;;;;;;;;;;179.30;2252.80;;;;;;5035360;28;19913;-75
2023/01/16 01:42:41;;;;;;;;;;;179.30;2252.80;;;;;;5034932;28;19971;-75
2023/01/16 01:44:45;;;;;;;;;;;179.40;2252.80;;;;;;5051454;28;19912;-76
2023/01/16 01:47:11;;;;;;;;;;;179.40;2252.80;;;;;;5032558;28;19905;-76
2023/01/16 01:49:37;;;;;;;;;;;179.50;2252.80;;;;;;5053162;28;19930;-75
2023/01/16 01:52:03;;;;;;;;;;;179.40;2252.80;;;;;;5027109;28;19905;-75
2023/01/16 01:54:33;;;;;;;;;;;179.40;2252.80;;;;;;5035326;28;19911;-75
2023/01/16 01:57:17;;;;;;;;;;;179.40;2252.80;;;;;;5052973;28;19912;-75
2023/01/16 01:59:46;;;;;;;;;;;179.30;2252.80;;;;;;5034131;28;20326;-75
2023/01/16 02:02:16;;;;;;;;;;;179.30;2252.80;;;;;;5050274;28;19913;-76
2023/01/16 02:04:43;;;;;;;;;;;179.40;2252.80;;;;;;5052995;28;19905;-76
2023/01/16 02:07:11;;;;;;;;;;;179.30;2252.80;;;;;;5053011;28;20270;-76
2023/01/16 02:09:37;;;;;;;;;;;179.30;2252.80;;;;;;5053302;28;19955;-75
2023/01/16 02:12:07;;;;;;;;;;;179.30;2252.80;;;;;;5035171;28;19912;-75
2023/01/16 02:14:36;;;;;;;;;;;179.30;2252.80;;;;;;5046583;28;19905;-75
2023/01/16 02:20:12;;;;;;;;;;;179.40;2252.80;;;;;;5050252;28;19912;-75
2023/01/16 02:22:38;;;;;;;;;;;179.30;2252.80;;;;;;5053321;28;19963;-75
2023/01/16 02:25:03;;;;;;;;;;;179.40;2252.80;;;;;;5030782;28;19905;-76
2023/01/16 02:27:45;;;;;;;;;;;179.40;2252.80;;;;;;5056765;28;20355;-75
2023/01/16 02:30:10;;;;;;;;;;;179.40;2252.80;;;;;;5056719;28;19957;-75
2023/01/16 02:32:39;;;;;;;;;;;179.40;2252.80;;;;;;5056729;28;20266;-75
2023/01/16 02:35:04;;;;;;;;;;;179.40;2252.80;;;;;;5056385;28;19951;-75
2023/01/16 02:37:36;;;;;;;;;;;179.40;2252.80;;;;;;5030460;28;19936;-75
2023/01/16 02:40:11;;;;;;;;;;;179.30;2252.80;;;;;;5056400;28;19916;-75
2023/01/16 02:42:43;;;;;;;;;;;179.40;2252.80;;;;;;5053938;28;19917;-75
2023/01/16 02:45:27;;;;;;;;;;;179.30;2252.80;;;;;;5056467;28;19904;-75
2023/01/16 02:48:05;;;;;;;;;;;179.40;2252.80;;;;;;5056051;28;19905;-75
2023/01/16 02:50:39;;;;;;;;;;;179.40;2252.80;;;;;;5038363;28;19967;-75
2023/01/16 02:53:14;;;;;;;;;;;179.40;2252.80;;;;;;5038311;28;20003;-75
2023/01/16 02:55:51;;;;;;;;;;;179.30;2252.80;;;;;;5054291;28;20353;-75
2023/01/16 02:58:18;;;;;;;;;;;179.30;2252.80;;;;;;5053386;28;20424;-77
2023/01/16 03:00:55;;;;;;;;;;;179.30;2252.80;;;;;;5038217;28;20381;-75
2023/01/16 03:03:26;;;;;;;;;;;179.30;2252.80;;;;;;5053936;28;19909;-76
2023/01/16 03:05:55;;;;;;;;;;;179.30;2252.80;;;;;;5029905;28;19913;-75
2023/01/16 03:08:47;;;;;;;;;;;179.30;2252.80;;;;;;5037978;28;19905;-75
2023/01/16 03:11:22;;;;;;;;;;;179.30;2252.80;;;;;;5048611;28;19962;-75
2023/01/16 03:13:55;;;;;;;;;;;179.30;2252.80;;;;;;5056013;28;19916;-75
2023/01/16 03:16:39;;;;;;;;;;;179.40;2252.80;;;;;;5034789;28;20042;-76
2023/01/16 03:19:16;;;;;;;;;;;179.30;2252.80;;;;;;5055524;28;19905;-77
2023/01/16 03:21:48;;;;;;;;;;;179.30;2252.80;;;;;;5037544;28;20282;-76
2023/01/16 03:24:32;;;;;;;;;;;179.40;2252.80;;;;;;5055456;28;19904;-76
2023/01/16 03:27:04;;;;;;;;;;;179.40;2252.80;;;;;;5037549;28;19912;-77
2023/01/16 03:29:29;;;;;;;;;;;179.40;2252.80;;;;;;5037050;28;19909;-76
2023/01/16 03:32:07;;;;;;;;;;;179.40;2252.80;;;;;;5055065;28;19911;-76
2023/01/16 03:34:42;;;;;;;;;;;179.40;2252.80;;;;;;5037200;28;20270;-76
2023/01/16 03:37:16;;;;;;;;;;;179.40;2252.80;;;;;;5055299;28;19909;-75
2023/01/16 03:39:47;;;;;;;;;;;179.40;2252.80;;;;;;5055031;28;19912;-76
2023/01/16 03:42:22;;;;;;;;;;;179.40;2252.80;;;;;;5054966;28;20390;-76
2023/01/16 03:44:50;;;;;;;;;;;179.40;2252.80;;;;;;5055041;28;19916;-76
2023/01/16 03:47:20;;;;;;;;;;;179.40;2252.80;;;;;;5055181;28;20382;-76
2023/01/16 03:49:47;;;;;;;;;;;179.30;2252.80;;;;;;5054858;28;19939;-76
2023/01/16 03:52:15;;;;;;;;;;;179.30;2252.80;;;;;;5054968;28;19904;-77
2023/01/16 03:54:59;;;;;;;;;;;179.30;2252.80;;;;;;5036960;28;19911;-76
2023/01/16 03:57:27;;;;;;;;;;;179.30;2252.80;;;;;;5054772;28;19920;-75
2023/01/16 03:59:53;;;;;;;;;;;179.30;2252.80;;;;;;5054843;28;20335;-77
2023/01/16 04:02:27;;;;;;;;;;;179.30;2252.80;;;;;;5054696;28;20004;-76
2023/01/16 04:05:02;;;;;;;;;;;179.30;2252.80;;;;;;5054758;28;19904;-76
2023/01/16 04:07:28;;;;;;;;;;;179.30;2252.80;;;;;;5036497;28;19908;-76
2023/01/16 04:09:56;;;;;;;;;;;179.30;2252.80;;;;;;5054614;28;19917;-76
2023/01/16 04:12:24;;;;;;;;;;;179.30;2252.80;;;;;;5054417;28;20438;-76
2023/01/16 04:14:53;;;;;;;;;;;179.30;2252.80;;;;;;5036407;28;19905;-75
2023/01/16 04:17:19;;;;;;;;;;;179.30;2252.80;;;;;;5036520;28;19905;-77
2023/01/16 04:19:45;;;;;;;;;;;179.30;2252.80;;;;;;5054350;28;19928;-76
2023/01/16 04:22:19;;;;;;;;;;;179.30;2252.80;;;;;;5036426;28;19920;-77
2023/01/16 04:24:45;;;;;;;;;;;179.30;2252.80;;;;;;5036370;28;19904;-76
2023/01/16 04:27:10;;;;;;;;;;;179.30;2252.80;;;;;;5036355;28;19911;-75
2023/01/16 04:29:36;;;;;;;;;;;179.30;2252.80;;;;;;5036355;28;19927;-75
2023/01/16 04:32:01;;;;;;;;;;;179.30;2252.80;;;;;;5036296;28;19913;-76
2023/01/16 04:34:27;;;;;;;;;;;179.30;2252.80;;;;;;5054104;28;19944;-75
2023/01/16 04:36:52;;;;;;;;;;;179.30;2252.80;;;;;;5036350;28;20335;-76
2023/01/16 04:39:18;;;;;;;;;;;179.40;2252.80;;;;;;5036022;28;19912;-76
2023/01/16 04:41:46;;;;;;;;;;;179.40;2252.80;;;;;;5036059;28;19916;-76
2023/01/16 04:44:12;;;;;;;;;;;179.40;2252.80;;;;;;5035293;28;19911;-76
2023/01/16 04:46:38;;;;;;;;;;;179.40;2252.80;;;;;;5035690;28;19908;-75
2023/01/16 04:49:05;;;;;;;;;;;179.40;2252.80;;;;;;5036036;28;19905;-76
2023/01/16 04:51:31;;;;;;;;;;;179.30;2252.80;;;;;;5053650;28;19909;-75
2023/01/16 04:53:56;;;;;;;;;;;179.30;2252.80;;;;;;5035749;28;19912;-76
2023/01/16 04:56:22;;;;;;;;;;;179.30;2252.80;;;;;;5035615;28;19905;-76
2023/01/16 04:58:49;;;;;;;;;;;179.30;2252.80;;;;;;5035783;28;19924;-75
2023/01/16 05:01:16;;;;;;;;;;;179.30;2252.80;;;;;;5035660;28;20197;-77
2023/01/16 05:03:42;;;;;;;;;;;179.20;2252.80;;;;;;5035642;28;19980;-76
2023/01/16 05:06:08;;;;;;;;;;;179.20;2252.80;;;;;;5035424;28;19912;-75
2023/01/16 05:08:33;;;;;;;;;;;179.20;2252.80;;;;;;5035419;28;19915;-76
2023/01/16 05:11:00;;;;;;;;;;;154.50;2252.80;;;;;;5035100;28;19931;-75
2023/01/16 05:13:27;;;;;;;;;;;154.50;2252.80;;;;;;5053231;28;19952;-76
2023/01/16 05:15:52;;;;;;;;;;;154.50;2252.80;;;;;;5053418;28;19905;-76
2023/01/16 05:18:18;;;;;;;;;;;154.50;2252.80;;;;;;5053357;28;19911;-76
2023/01/16 05:20:44;;;;;;;;;;;154.50;2252.80;;;;;;5053026;28;19957;-76
2023/01/16 05:23:10;;;;;;;;;;;154.50;2252.80;;;;;;5035296;28;19911;-75
2023/01/16 05:25:36;;;;;;;;;;;154.50;2252.80;;;;;;5035223;28;19995;-75
2023/01/16 05:28:02;;;;;;;;;;;179.40;2252.80;;;;;;5053221;28;19951;-76
2023/01/16 05:30:28;;;;;;;;;;;154.40;2252.80;;;;;;5035254;28;19923;-76
2023/01/16 05:32:53;;;;;;;;;;;154.40;2252.80;;;;;;5053228;28;20396;-76
2023/01/16 05:35:19;;;;;;;;;;;154.40;2252.80;;;;;;5035241;28;19912;-76
2023/01/16 05:37:45;;;;;;;;;;;154.50;2252.80;;;;;;5035135;28;19913;-76
2023/01/16 05:40:12;;;;;;;;;;;154.40;2252.80;;;;;;5035066;28;19992;-75
2023/01/16 05:42:37;;;;;;;;;;;154.40;2252.80;;;;;;5035069;28;19928;-75
2023/01/16 05:45:03;;;;;;;;;;;154.30;2252.80;;;;;;5035196;28;19904;-76
2023/01/16 05:47:29;;;;;;;;;;;154.30;2252.80;;;;;;5053017;28;19905;-76
2023/01/16 05:49:58;;;;;;;;;;;154.30;2252.80;;;;;;5035137;28;20002;-77
2023/01/16 05:52:26;;;;;;;;;;;154.30;2252.80;;;;;;5052841;28;20317;-76
2023/01/16 05:54:52;;;;;;;;;;;154.30;2252.80;;;;;;5035041;28;19908;-76
2023/01/16 05:57:18;;;;;;;;;;;154.30;2252.80;;;;;;5056393;28;20003;-76
2023/01/16 05:59:46;;;;;;;;;;;154.30;2252.80;;;;;;5039241;28;19912;-76
2023/01/16 06:02:12;;;;;;;;;;;154.30;2252.80;;;;;;5056798;28;20385;-76
2023/01/16 06:04:38;;;;;;;;;;;154.30;2252.80;;;;;;5039102;28;19976;-76
2023/01/16 06:07:03;;;;;;;;;;;154.20;2252.80;;;;;;5056812;28;19904;-76
2023/01/16 06:09:29;;;;;;;;;;;154.30;2252.80;;;;;;5038838;28;20278;-76
2023/01/16 06:11:54;;;;;;;;;;;154.20;2252.80;;;;;;5056955;28;20363;-76
2023/01/16 06:14:20;;;;;;;;;;;154.20;2252.80;;;;;;5056692;28;19905;-76
2023/01/16 06:16:45;;;;;;;;;;;154.30;2252.80;;;;;;5038572;28;19915;-76
2023/01/16 06:19:11;;;;;;;;;;;154.30;2252.80;;;;;;5038775;28;20378;-76
2023/01/16 06:21:37;;;;;;;;;;;154.20;2252.80;;;;;;5038593;28;20555;-75
2023/01/16 06:24:02;;;;;;;;;;;154.30;2252.80;;;;;;5039217;28;19911;-79
2023/01/16 06:26:28;;;;;;;;;;;154.30;2252.80;;;;;;5038617;28;19905;-78
2023/01/16 06:28:55;;;;;;;;;;;154.20;2252.80;;;;;;5038801;28;19904;-77
2023/01/16 06:31:21;;;;;;;;;;;154.30;2252.80;;;;;;5056599;28;19905;-77
2023/01/16 06:33:47;;;;;;;;;;;154.50;2252.80;;;;;;5038749;28;19909;-77
2023/01/16 06:36:13;;;;;;;;;;;154.30;2252.80;;;;;;5038431;28;19972;-77
2023/01/16 06:38:38;;;;;;;;;;;154.20;2252.80;;;;;;5037336;28;19931;-78
2023/01/16 06:41:04;;;;;;;;;;;154.20;2252.80;;;;;;5056475;28;19928;-76
2023/01/16 06:43:29;;;;;;;;;;;154.20;2252.80;;;;;;5037675;28;19951;-75
2023/01/16 06:45:55;;;;;;;;;;;154.20;2252.80;;;;;;5038059;28;19905;-77
2023/01/16 06:48:21;;;;;;;;;;;154.20;2252.80;;;;;;5056197;28;19904;-76
2023/01/16 06:50:47;;;;;;;;;;;154.20;2252.80;;;;;;5036178;28;19904;-76
2023/01/16 06:53:13;;;;;;;;;;;154.20;2252.80;;;;;;5037278;28;19980;-76
2023/01/16 06:55:39;;;;;;;;;;;154.10;2252.80;;;;;;5037689;28;19913;-76
2023/01/16 06:58:05;;;;;;;;;;;154.10;2252.80;;;;;;5036758;28;19924;-76
2023/01/16 07:00:30;;;;;;;;;;;154.20;2252.80;;;;;;5037970;28;19909;-76
2023/01/16 07:02:56;;;;;;;;;;;154.10;2252.80;;;;;;5056049;28;19909;-76
2023/01/16 07:05:23;;;;;;;;;;;154.10;2252.80;;;;;;5055792;28;19911;-77
2023/01/16 07:07:48;;;;;;;;;;;154.10;2252.80;;;;;;5036787;28;19908;-76
2023/01/16 07:10:14;;;;;;;;;;;154.10;2252.80;;;;;;5037454;28;19912;-77
2023/01/16 07:12:40;;;;;;;;;;;154.20;2252.80;;;;;;5037525;28;19915;-76
2023/01/16 07:23:26;;;;;;;;;;;154.20;2252.80;;;;;;5055041;28;19911;-77
2023/01/16 07:25:53;;;;;;;;;;;154.20;2252.80;;;;;;5042828;28;19912;-76
2023/01/16 07:28:19;;;;;;;;;;;154.30;2252.80;;;;;;5037469;28;19908;-76
2023/01/16 07:30:45;;;;;;;;;;;154.30;2252.80;;;;;;5055365;28;19905;-76
2023/01/16 07:33:11;;;;;;;;;;;154.30;2252.80;;;;;;5037161;28;20278;-75
2023/01/16 07:35:36;;;;;;;;;;;154.30;2252.80;;;;;;5037017;28;20381;-76
2023/01/16 07:38:02;;;;;;;;;;;154.30;2252.80;;;;;;5036824;28;19967;-75
2023/01/16 07:40:28;;;;;;;;;;;154.30;2252.80;;;;;;5035982;28;19913;-75
2023/01/16 07:42:53;;;;;;;;;;;154.30;2252.80;;;;;;5054883;28;19924;-74
2023/01/16 07:45:19;;;;;;;;;;;154.30;2252.80;;;;;;5037044;28;19905;-76
2023/01/16 07:47:44;;;;;;;;;;;154.30;2252.80;;;;;;5054709;28;20385;-80
2023/01/16 07:50:10;;;;;;;;;;;154.30;2252.80;;;;;;5036092;28;19958;-76
2023/01/16 07:52:36;;;;;;;;;;;154.30;2252.80;;;;;;5036766;28;19905;-77
2023/01/16 07:55:01;;;;;;;;;;;154.30;2252.80;;;;;;5047741;28;19905;-76
2023/01/16 07:57:27;;;;;;;;;;;154.30;2252.80;;;;;;5036032;28;19916;-77
2023/01/16 07:59:53;;;;;;;;;;;154.40;2252.80;;;;;;5035875;28;19905;-77
2023/01/16 08:02:19;;;;;;;;;;;154.40;2252.80;;;;;;5036024;28;19917;-77
2023/01/16 08:04:44;;;;;;;;;;;154.50;2252.80;;;;;;5031953;28;19952;-77
2023/01/16 08:07:10;;;;;;;;;;;154.50;2252.80;;;;;;5035922;28;19959;-77
2023/01/16 08:09:35;;;;;;;;;;;154.50;2252.80;;;;;;5036576;28;19915;-78
2023/01/16 08:12:01;;;;;;;;;;;154.50;2252.80;;;;;;5036140;28;19962;-78
2023/01/16 08:14:26;;;;;;;;;;;154.50;2252.80;;;;;;5031819;28;19905;-78
2023/01/16 08:16:52;;;;;;;;;;;179.20;2252.80;;;;;;5036420;28;19991;-83
2023/01/16 08:19:18;;;;;;;;;;;179.30;2252.80;;;;;;5054577;28;19909;-78
2023/01/16 08:21:43;;;;;;;;;;;179.30;2252.80;;;;;;5036562;28;19913;-78
2023/01/16 08:24:12;;;;;;;;;;;179.30;2252.80;;;;;;5037070;28;19958;-78
2023/01/16 08:26:38;;;;;;;;;;;179.40;2252.80;;;;;;5036818;28;19909;-79
2023/01/16 08:29:04;;;;;;;;;;;179.40;2252.80;;;;;;5044281;28;19990;-81
2023/01/16 08:31:29;;;;;;;;;;;179.50;2252.80;;;;;;5037003;28;19908;-79
2023/01/16 08:33:55;;;;;;;;;;;179.50;2252.80;;;;;;5037009;28;19983;-81
2023/01/16 08:36:21;;;;;;;;;;;179.60;2252.80;;;;;;5035674;28;19912;-83
2023/01/16 08:38:48;;;;;;;;;;;179.60;2252.80;;;;;;5034357;28;19908;-81
2023/01/16 08:52:11;;;;;;;;;;;179.80;2252.80;;;;;;5053809;28;19919;-79
2023/01/16 08:54:37;;;;;;;;;;;179.80;2252.80;;;;;;5053825;28;19999;-80
2023/01/16 08:57:03;;;;;;;;;;;179.90;2252.80;;;;;;5036025;28;20350;-79
2023/01/16 08:59:33;;;;;;;;;;;179.90;2252.80;;;;;;5035514;28;20357;-79
2023/01/16 09:02:02;;;;;;;;;;;179.90;2252.80;;;;;;5054503;28;19912;-79
2023/01/16 09:04:28;;;;;;;;;;;180.00;2252.80;;;;;;5035567;28;19908;-81
2023/01/16 09:06:54;;;;;;;;;;;180.00;2252.80;;;;;;5035918;28;20046;-81
2023/01/16 09:09:19;;;;;;;;;;;180.10;2252.80;;;;;;5035894;28;19916;-79
2023/01/16 09:14:29;;;;;;;;;;;180.10;2252.80;;;;;;5054284;28;19958;-77
2023/01/16 09:16:55;;;;;;;;;;;180.10;2252.80;;;;;;5035858;28;19905;-82
2023/01/16 09:19:21;;;;;;;;;;;180.10;2252.80;;;;;;5035724;28;19904;-80
2023/01/16 09:21:46;;;;;;;;;;;204.80;2252.80;;;;;;5035673;28;20017;-82
2023/01/16 09:24:12;;;;;;;;;;;204.80;2252.80;;;;;;5038223;28;19927;-81
2023/01/16 09:26:37;;;;;;;;;;;204.80;2252.80;;;;;;5036694;28;19934;-84
2023/01/16 09:29:03;;;;;;;;;;;204.80;2252.80;;;;;;5036126;28;19908;-81
2023/01/16 09:31:28;;;;;;;;;;;204.80;2252.80;;;;;;5035246;28;19912;-79
2023/01/16 09:33:54;;;;;;;;;;;180.10;2252.80;;;;;;5036553;28;19958;-83
2023/01/16 09:36:20;;;;;;;;;;;180.10;2252.80;;;;;;5036041;28;19905;-80
2023/01/16 09:38:46;;;;;;;;;;;180.00;2252.80;;;;;;5036030;28;19913;-86
2023/01/16 09:43:35;;;;;;;;;;;204.80;2252.80;;;;;;5036040;28;20355;-78
2023/01/16 09:44:04;;;;;;;;;;;204.80;2252.80;;;;;;5053715;28;20030;-79
2023/01/16 09:46:35;;;;;;;;;;;204.80;2252.80;;;;;;5036166;28;19905;-78
2023/01/16 09:49:08;;;;;;;;;;;204.80;2252.80;;;;;;5036161;28;20042;-79
2023/01/16 09:51:36;;;;;;;;;;;204.80;2252.80;;;;;;5036125;28;19905;-85
2023/01/16 09:59:40;;;;;;;;;;;204.80;2252.80;;;;;;5042123;28;19992;-79
2023/01/16 10:02:06;;;;;;;;;;;204.80;2252.80;;;;;;5035373;28;19936;-78
2023/01/16 10:04:31;;;;;;;;;;;204.90;2252.80;;;;;;5035524;28;20348;-78
2023/01/16 10:07:21;;;;;;;;;;;204.90;2252.80;;;;;;5035251;28;19905;-76
2023/01/16 10:10:02;;;;;;;;;;;204.90;2252.80;;;;;;5035146;28;19955;-78
2023/01/16 10:12:32;;;;;;;;;;;205.00;2252.80;;;;;;5022794;28;19909;-77
2023/01/16 10:14:57;;;;;;;;;;;205.10;2252.80;;;;;;5053130;28;20007;-77
2023/01/16 10:17:41;;;;;;;;;;;205.10;2252.80;;;;;;5035443;28;19943;-78
2023/01/16 10:20:30;;;;;;;;;;;205.10;2252.80;;;;;;5035282;28;20000;-78
2023/01/16 10:23:11;;;;;;;;;;;205.10;2252.80;;;;;;5035305;28;19959;-77
2023/01/16 10:25:58;;;;;;;;;;;205.20;2252.80;;;;;;5034877;28;19904;-78
2023/01/16 10:28:31;;;;;;;;;;;205.20;2252.80;;;;;;5035268;28;19905;-77
2023/01/16 10:31:08;;;;;;;;;;;205.20;2252.80;;;;;;5035620;28;19950;-78
2023/01/16 10:33:57;;;;;;;;;;;205.30;2252.80;;;;;;5035340;28;19904;-77
2023/01/16 10:36:29;;;;;;;;;;;205.40;2252.80;;;;;;5052828;28;20321;-78
2023/01/16 10:38:56;;;;;;;;;;;205.40;2252.80;;;;;;5034868;28;19909;-78
2023/01/16 10:50:09;;;;;;;;;;;205.40;2252.80;;;;;;5057040;28;19916;-79
2023/01/16 10:52:35;;;;;;;;;;;205.50;2252.80;;;;;;5037874;28;19955;-79
2023/01/16 10:55:00;;;;;;;;;;;205.50;2252.80;;;;;;5026349;28;19908;-79
2023/01/16 10:57:26;;;;;;;;;;;205.50;2252.80;;;;;;5031752;28;20448;-79
2023/01/16 10:59:54;;;;;;;;;;;205.60;2252.80;;;;;;5053359;28;20380;-79
2023/01/16 11:02:27;;;;;;;;;;;205.60;2252.80;;;;;;5024666;28;20092;-76
2023/01/16 11:04:53;;;;;;;;;;;205.60;2252.80;;;;;;5038453;28;19995;-78
2023/01/16 11:07:20;;;;;;;;;;;205.70;2252.80;;;;;;5037846;28;19958;-78
2023/01/16 11:09:46;;;;;;;;;;;205.70;2252.80;;;;;;5036936;28;20350;-78
2023/01/16 11:20:38;;;;;;;;;;;205.70;2252.80;;;;;;5055314;28;20019;-81
2023/01/16 11:23:16;;;;;;;;;;;230.40;2252.80;;;;;;5055880;28;19964;-84
2023/01/16 11:25:42;;;;;;;;;;;230.40;2252.80;;;;;;5055268;28;19909;-80
2023/01/16 11:28:11;;;;;;;;;;;230.40;2252.80;;;;;;5038472;28;19912;-84
2023/01/16 11:30:39;;;;;;;;;;;230.40;2252.80;;;;;;5035823;28;19915;-81
2023/01/16 11:33:12;;;;;;;;;;;230.40;2252.80;;;;;;5043354;28;19909;-80
2023/01/16 11:35:38;;;;;;;;;;;230.40;2252.80;;;;;;5038029;28;20317;-80
2023/01/16 11:38:05;;;;;;;;;;;205.70;2252.80;;;;;;5037632;28;19950;-83
2023/01/16 11:40:36;;;;;;;;;;;230.40;2252.80;;;;;;5037469;28;19913;-80
2023/01/16 11:46:07;;;;;;;;;;;230.40;2252.80;;;;;;5055692;28;19958;-80
2023/01/16 11:48:40;;;;;;;;;;;230.40;2252.80;;;;;;5035525;28;20367;-76
2023/01/16 11:51:06;;;;;;;;;;;230.40;2252.80;;;;;;5032491;28;20389;-78
2023/01/16 11:53:33;;;;;;;;;;;230.40;2252.80;;;;;;5036847;28;19905;-77
2023/01/16 11:56:02;;;;;;;;;;;230.40;2252.80;;;;;;5037055;28;19908;-78
2023/01/16 11:58:43;;;;;;;;;;;230.40;2252.80;;;;;;5037047;28;19927;-78
2023/01/16 12:01:18;;;;;;;;;;;230.40;2252.80;;;;;;5036759;28;19912;-79
2023/01/16 12:04:02;;;;;;;;;;;230.40;2252.80;;;;;;5035696;28;19905;-80
2023/01/16 12:06:30;;;;;;;;;;;230.40;2252.80;;;;;;5036803;28;19909;-77
2023/01/16 12:09:04;;;;;;;;;;;230.40;2252.80;;;;;;5054839;28;20223;-80
2023/01/16 12:11:48;;;;;;;;;;;205.70;2252.80;;;;;;5054912;28;20035;-79
2023/01/16 12:14:33;;;;;;;;;;;230.40;2252.80;;;;;;5053558;28;19912;-79
2023/01/16 12:17:01;;;;;;;;;;;230.40;2252.80;;;;;;5036680;28;19976;-79
2023/01/16 12:19:53;;;;;;;;;;;230.40;2252.80;;;;;;5032953;28;19909;-79
2023/01/16 12:22:25;;;;;;;;;;;230.40;2252.80;;;;;;5043305;28;19921;-79
2023/01/16 12:25:10;;;;;;;;;;;205.70;2252.80;;;;;;5035041;28;19916;-79
2023/01/16 12:27:39;;;;;;;;;;;230.40;2252.80;;;;;;4937141;28;19914;-78
2023/01/16 12:30:10;;;;;;;;;;;230.40;2252.80;;;;;;4954373;28;19906;-79
2023/01/16 12:32:36;;;;;;;;;;;230.40;2252.80;;;;;;4940725;29;19910;-77
2023/01/16 12:35:01;;;;;;;;;;;205.70;2252.80;;;;;;4938279;28;20002;-78
2023/01/16 12:37:27;;;;;;;;;;;205.70;2252.80;;;;;;4957212;28;20278;-79
2023/01/16 12:40:07;;;;;;;;;;;205.70;2252.80;;;;;;4938451;29;19910;-78
2023/01/16 12:45:17;;;;;;;;;;;205.70;2252.80;;;;;;4958919;28;20273;-79
2023/01/16 12:47:52;;;;;;;;;;;230.40;2252.80;;;;;;4938421;29;19907;-78
2023/01/16 12:50:29;;;;;;;;;;;230.40;2252.80;;;;;;4956429;28;20380;-79
2023/01/16 12:53:04;;;;;;;;;;;230.40;2252.80;;;;;;4953703;28;19906;-78
2023/01/16 12:55:38;;;;;;;;;;;230.40;2252.80;;;;;;4954905;28;20389;-78
2023/01/16 12:58:09;;;;;;;;;;;230.50;2252.80;;;;;;4955512;28;20531;-79
2023/01/16 13:00:42;;;;;;;;;;;230.50;2252.80;;;;;;4939345;28;19918;-78
2023/01/16 13:03:08;;;;;;;;;;;230.40;2252.80;;;;;;4953758;29;19918;-79
2023/01/16 13:05:35;;;;;;;;;;;230.50;2252.80;;;;;;5023327;28;20669;-77
2023/01/16 13:08:05;;;;;;;;;;;230.50;2252.80;;;;;;5034622;28;19905;-77
2023/01/16 13:13:27;;;;;;;;;;;230.40;2252.80;;;;;;5053791;28;19958;-78
2023/01/16 13:15:56;;;;;;;;;;;230.40;2252.80;;;;;;5051871;28;20378;-79
2023/01/16 13:18:26;;;;;;;;;;;230.40;2252.80;;;;;;5053730;28;19928;-78
2023/01/16 13:20:59;;;;;;;;;;;205.70;2252.80;;;;;;5053487;28;19948;-79
2023/01/16 13:23:28;;;;;;;;;;;205.70;2252.80;;;;;;5035795;28;20042;-80
2023/01/16 13:25:57;;;;;;;;;;;205.60;2252.80;;;;;;5034400;28;19905;-78
2023/01/16 13:28:29;;;;;;;;;;;205.60;2252.80;;;;;;5034765;28;19911;-82
2023/01/16 13:30:56;;;;;;;;;;;205.50;2252.80;;;;;;5050121;28;19905;-78
2023/01/16 13:33:26;;;;;;;;;;;205.40;2252.80;;;;;;5053206;28;20270;-79
2023/01/16 13:36:03;;;;;;;;;;;205.40;2252.80;;;;;;5035219;28;19909;-78
2023/01/16 13:38:47;;;;;;;;;;;205.40;2252.80;;;;;;5025635;28;20285;-77
2023/01/16 13:41:14;;;;;;;;;;;205.40;2252.80;;;;;;5021556;28;19928;-77
2023/01/16 13:46:48;;;;;;;;;;;205.40;2252.80;;;;;;4952984;28;19957;-78
2023/01/16 13:49:24;;;;;;;;;;;205.40;2252.80;;;;;;4952650;28;19945;-77
2023/01/16 13:51:51;;;;;;;;;;;205.30;2252.80;;;;;;4937317;28;19907;-77
2023/01/16 13:54:20;;;;;;;;;;;205.30;2252.80;;;;;;4936664;28;19906;-77
2023/01/16 13:57:03;;;;;;;;;;;205.30;2252.80;;;;;;4952600;28;19985;-76
2023/01/16 13:59:49;;;;;;;;;;;205.30;2252.80;;;;;;4952348;28;20361;-76
2023/01/16 14:02:25;;;;;;;;;;;205.30;2252.80;;;;;;4914322;29;20332;-76
2023/01/16 14:05:06;;;;;;;;;;;205.30;2252.80;;;;;;4915452;29;19914;-77
2023/01/16 14:10:44;;;;;;;;;;;205.40;2252.80;;;;;;4916380;29;20468;-76
2023/01/16 14:13:14;;;;;;;;;;;205.40;2252.80;;;;;;4918451;29;19907;-78
2023/01/16 14:18:37;;;;;;;;;;;205.20;2252.80;;;;;;4924361;29;20486;-77
2023/01/16 14:21:03;;;;;;;;;;;205.20;2252.80;;;;;;4917073;29;19907;-76
2023/01/16 14:26:23;;;;;;;;;;;205.10;2252.80;;;;;;4977568;28;20016;-78
2023/01/16 14:28:54;;;;;;;;;;;205.00;2252.80;;;;;;4960708;28;19921;-78
2023/01/16 14:31:28;;;;;;;;;;;205.00;2252.80;;;;;;4977987;28;19913;-77
2023/01/16 14:33:55;;;;;;;;;;;205.00;2252.80;;;;;;4961817;28;19913;-77
2023/01/16 14:36:22;;;;;;;;;;;205.00;2252.80;;;;;;4960533;28;20372;-77
2023/01/16 14:38:48;;;;;;;;;;;205.00;2252.80;;;;;;4998806;28;19920;-77
2023/01/16 14:55:29;;;;;;;;;;;205.10;2252.80;;;;;;5055951;28;19919;-76
2023/01/16 14:57:55;;;;;;;;;;;205.10;2252.80;;;;;;5033988;28;19917;-77
2023/01/16 15:00:23;;;;;;;;;;;205.10;2252.80;;;;;;5055426;28;19905;-77
2023/01/16 15:03:08;;;;;;;;;;;205.10;2252.80;;;;;;5037773;28;19916;-76
2023/01/16 15:05:50;;;;;;;;;;;205.20;2252.80;;;;;;5037742;28;19911;-76
2023/01/16 15:08:23;;;;;;;;;;;205.10;2252.80;;;;;;5055547;28;20301;-77
2023/01/16 15:10:50;;;;;;;;;;;205.20;2252.80;;;;;;5018128;28;20007;-77
2023/01/16 15:13:20;;;;;;;;;;;205.20;2252.80;;;;;;5050306;28;19904;-76
2023/01/16 15:16:06;;;;;;;;;;;205.10;2252.80;;;;;;5055481;28;19904;-77